sensor_id;sensor_type;location;lat;lon;timestamp;pressure;altitude;pressure_sealevel;temperature;humidity
61786;BME280;47692;53.714;11.372;2024-02-04T00:01:56;101612.50;;;4.99;100.00
61786;BME280;47692;53.714;11.372;2024-02-04T00:04:22;101618.66;;;5.06;100.00
61786;BME280;47692;53.714;11.372;2024-02-04T00:06:48;101607.41;;;5.06;100.00
61786;BME280;47692;53.714;11.372;2024-02-04T00:09:14;101606.47;;;5.00;100.00
61786;BME280;47692;53.714;11.372;2024-02-04T00:11:39;101607.47;;;5.09;100.00
61786;BME280;47692;53.714;11.372;2024-02-04T00:14:04;101601.38;;;5.05;99.63
61786;BME280;47692;53.714;11.372;2024-02-04T00:16:30;101604.88;;;5.09;100.00
61786;BME280;47692;53.714;11.372;2024-02-04T00:18:55;101606.56;;;5.05;99.83
61786;BME280;47692;53.714;11.372;2024-02-04T00:21:20;101598.78;;;5.07;99.97
61786;BME280;47692;53.714;11.372;2024-02-04T00:23:46;101603.16;;;5.09;99.63
61786;BME280;47692;53.714;11.372;2024-02-04T00:26:11;101591.03;;;5.08;99.74
61786;BME280;47692;53.714;11.372;2024-02-04T00:28:36;101582.44;;;5.08;99.76
61786;BME280;47692;53.714;11.372;2024-02-04T00:31:02;101578.16;;;5.10;100.00
61786;BME280;47692;53.714;11.372;2024-02-04T00:33:27;101572.09;;;5.09;99.54
61786;BME280;47692;53.714;11.372;2024-02-04T00:35:52;101570.41;;;5.11;99.36
61786;BME280;47692;53.714;11.372;2024-02-04T00:38:18;101572.94;;;5.08;99.28
61786;BME280;47692;53.714;11.372;2024-02-04T00:40:43;101569.44;;;5.05;99.19
61786;BME280;47692;53.714;11.372;2024-02-04T00:43:08;101563.38;;;5.03;99.47
61786;BME280;47692;53.714;11.372;2024-02-04T00:45:34;101565.13;;;5.04;99.41
61786;BME280;47692;53.714;11.372;2024-02-04T00:47:59;101561.66;;;5.03;99.41
61786;BME280;47692;53.714;11.372;2024-02-04T00:50:24;101554.78;;;5.05;98.83
61786;BME280;47692;53.714;11.372;2024-02-04T00:52:50;101558.13;;;4.98;98.70
61786;BME280;47692;53.714;11.372;2024-02-04T00:55:18;101559.03;;;5.01;98.87
61786;BME280;47692;53.714;11.372;2024-02-04T00:57:43;101563.38;;;5.01;98.52
61786;BME280;47692;53.714;11.372;2024-02-04T01:00:09;101554.63;;;4.96;98.59
61786;BME280;47692;53.714;11.372;2024-02-04T01:02:34;101566.72;;;4.97;98.58
61786;BME280;47692;53.714;11.372;2024-02-04T01:05:00;101553.84;;;5.00;98.68
61786;BME280;47692;53.714;11.372;2024-02-04T01:07:25;101538.28;;;4.98;98.44
61786;BME280;47692;53.714;11.372;2024-02-04T01:09:51;101533.09;;;4.95;98.80
61786;BME280;47692;53.714;11.372;2024-02-04T01:12:16;101535.66;;;4.94;98.87
61786;BME280;47692;53.714;11.372;2024-02-04T01:14:41;101546.84;;;4.94;98.84
61786;BME280;47692;53.714;11.372;2024-02-04T01:17:07;101559.88;;;4.99;98.78
61786;BME280;47692;53.714;11.372;2024-02-04T01:19:33;101560.66;;;4.93;98.88
61786;BME280;47692;53.714;11.372;2024-02-04T01:21:58;101560.66;;;4.93;98.80
61786;BME280;47692;53.714;11.372;2024-02-04T01:24:24;101544.28;;;4.96;98.92
61786;BME280;47692;53.714;11.372;2024-02-04T01:26:50;101533.03;;;4.92;98.96
61786;BME280;47692;53.714;11.372;2024-02-04T01:29:15;101530.47;;;4.94;98.86
61786;BME280;47692;53.714;11.372;2024-02-04T01:31:41;101523.56;;;4.93;99.07
61786;BME280;47692;53.714;11.372;2024-02-04T01:34:07;101516.53;;;4.82;98.95
61786;BME280;47692;53.714;11.372;2024-02-04T01:36:32;101516.53;;;4.82;99.27
61786;BME280;47692;53.714;11.372;2024-02-04T01:38:57;101532.00;;;4.79;99.31
61786;BME280;47692;53.714;11.372;2024-02-04T01:41:23;101533.75;;;4.80;99.30
61786;BME280;47692;53.714;11.372;2024-02-04T01:43:51;101530.25;;;4.78;99.63
61786;BME280;47692;53.714;11.372;2024-02-04T01:46:16;101512.13;;;4.75;99.77
61786;BME280;47692;53.714;11.372;2024-02-04T01:48:42;101511.22;;;4.73;99.85
61786;BME280;47692;53.714;11.372;2024-02-04T01:51:08;101519.81;;;4.72;100.00
61786;BME280;47692;53.714;11.372;2024-02-04T01:53:34;101519.88;;;4.75;100.00
61786;BME280;47692;53.714;11.372;2024-02-04T01:56:02;101514.69;;;4.75;100.00
61786;BME280;47692;53.714;11.372;2024-02-04T01:58:27;101520.75;;;4.77;100.00
61786;BME280;47692;53.714;11.372;2024-02-04T02:00:53;101525.13;;;4.81;100.00
61786;BME280;47692;53.714;11.372;2024-02-04T02:03:19;101519.97;;;4.81;100.00
61786;BME280;47692;53.714;11.372;2024-02-04T02:05:46;101521.72;;;4.85;100.00
61786;BME280;47692;53.714;11.372;2024-02-04T02:08:12;101528.66;;;4.87;99.90
61786;BME280;47692;53.714;11.372;2024-02-04T02:10:37;101530.44;;;4.92;99.82
61786;BME280;47692;53.714;11.372;2024-02-04T02:13:09;101514.03;;;4.89;99.84
61786;BME280;47692;53.714;11.372;2024-02-04T02:15:41;101512.28;;;4.88;99.74
61786;BME280;47692;53.714;11.372;2024-02-04T02:24:07;101509.72;;;4.89;99.98
61786;BME280;47692;53.714;11.372;2024-02-04T02:26:35;101511.44;;;4.89;100.00
61786;BME280;47692;53.714;11.372;2024-02-04T02:29:04;101502.81;;;4.90;99.98
61786;BME280;47692;53.714;11.372;2024-02-04T02:31:30;101499.34;;;4.88;100.00
61786;BME280;47692;53.714;11.372;2024-02-04T02:33:56;101495.03;;;4.90;100.00
61786;BME280;47692;53.714;11.372;2024-02-04T02:36:21;101485.56;;;4.89;100.00
61786;BME280;47692;53.714;11.372;2024-02-04T02:39:09;101485.56;;;4.89;100.00
61786;BME280;47692;53.714;11.372;2024-02-04T02:41:38;101495.06;;;4.91;100.00
61786;BME280;47692;53.714;11.372;2024-02-04T02:44:07;101488.22;;;4.95;100.00
61786;BME280;47692;53.714;11.372;2024-02-04T02:46:33;101478.75;;;4.97;99.94
61786;BME280;47692;53.714;11.372;2024-02-04T02:48:58;101477.03;;;4.97;99.73
61786;BME280;47692;53.714;11.372;2024-02-04T02:51:23;101477.06;;;4.99;99.50
61786;BME280;47692;53.714;11.372;2024-02-04T02:53:49;101468.44;;;5.00;99.16
61786;BME280;47692;53.714;11.372;2024-02-04T02:56:14;101490.06;;;5.04;99.62
61786;BME280;47692;53.714;11.372;2024-02-04T02:58:39;101492.59;;;4.99;99.18
61786;BME280;47692;53.714;11.372;2024-02-04T03:01:05;101491.75;;;5.01;99.19
61786;BME280;47692;53.714;11.372;2024-02-04T03:03:30;101499.59;;;5.08;98.70
61786;BME280;47692;53.714;11.372;2024-02-04T03:05:55;101496.13;;;5.07;98.49
61786;BME280;47692;53.714;11.372;2024-02-04T03:08:20;101503.94;;;5.12;98.49
61786;BME280;47692;53.714;11.372;2024-02-04T03:10:46;101480.59;;;5.07;98.40
61786;BME280;47692;53.714;11.372;2024-02-04T03:13:11;101479.72;;;5.07;98.52
61786;BME280;47692;53.714;11.372;2024-02-04T03:15:36;101475.38;;;5.04;98.27
61786;BME280;47692;53.714;11.372;2024-02-04T03:18:02;101472.91;;;5.13;98.47
61786;BME280;47692;53.714;11.372;2024-02-04T03:20:27;101468.63;;;5.15;97.88
61786;BME280;47692;53.714;11.372;2024-02-04T03:22:55;101467.78;;;5.18;98.07
61786;BME280;47692;53.714;11.372;2024-02-04T03:25:20;101453.97;;;5.17;97.79
61786;BME280;47692;53.714;11.372;2024-02-04T03:27:46;101451.41;;;5.21;97.29
61786;BME280;47692;53.714;11.372;2024-02-04T03:30:11;101458.38;;;5.25;97.57
61786;BME280;47692;53.714;11.372;2024-02-04T03:32:37;101455.81;;;5.28;97.29
61786;BME280;47692;53.714;11.372;2024-02-04T03:35:03;101446.34;;;5.28;97.14
61786;BME280;47692;53.714;11.372;2024-02-04T03:37:28;101456.72;;;5.30;96.67
61786;BME280;47692;53.714;11.372;2024-02-04T03:39:54;101454.97;;;5.32;96.92
61786;BME280;47692;53.714;11.372;2024-02-04T03:42:19;101454.97;;;5.32;96.66
61786;BME280;47692;53.714;11.372;2024-02-04T03:44:46;101444.66;;;5.33;96.44
61786;BME280;47692;53.714;11.372;2024-02-04T03:47:12;101435.16;;;5.32;96.59
61786;BME280;47692;53.714;11.372;2024-02-04T03:49:37;101437.72;;;5.31;96.32
61786;BME280;47692;53.714;11.372;2024-02-04T03:52:02;101428.25;;;5.33;96.42
61786;BME280;47692;53.714;11.372;2024-02-04T03:54:28;101431.72;;;5.35;96.14
61786;BME280;47692;53.714;11.372;2024-02-04T03:56:53;101435.16;;;5.34;96.13
61786;BME280;47692;53.714;11.372;2024-02-04T03:59:18;101434.31;;;5.35;96.05
61786;BME280;47692;53.714;11.372;2024-02-04T04:01:48;101426.53;;;5.35;96.08
61786;BME280;47692;53.714;11.372;2024-02-04T04:06:43;101406.69;;;5.34;96.00
61786;BME280;47692;53.714;11.372;2024-02-04T04:09:08;101406.69;;;5.34;96.11
61786;BME280;47692;53.714;11.372;2024-02-04T04:11:34;101392.84;;;5.32;96.03
61786;BME280;47692;53.714;11.372;2024-02-04T04:13:59;101404.94;;;5.33;96.27
61786;BME280;47692;53.714;11.372;2024-02-04T04:16:24;101402.41;;;5.38;96.00
61786;BME280;47692;53.714;11.372;2024-02-04T04:18:49;101392.91;;;5.38;95.98
61786;BME280;47692;53.714;11.372;2024-02-04T04:21:15;101389.44;;;5.36;96.04
61786;BME280;47692;53.714;11.372;2024-02-04T04:23:41;101387.69;;;5.33;96.11
61786;BME280;47692;53.714;11.372;2024-02-04T04:26:06;101385.97;;;5.34;96.22
61786;BME280;47692;53.714;11.372;2024-02-04T04:28:31;101392.91;;;5.38;96.41
61786;BME280;47692;53.714;11.372;2024-02-04T04:30:57;101384.25;;;5.36;96.23
61786;BME280;47692;53.714;11.372;2024-02-04T04:33:22;101379.09;;;5.36;96.23
61786;BME280;47692;53.714;11.372;2024-02-04T04:35:47;101385.06;;;5.32;96.05
61786;BME280;47692;53.714;11.372;2024-02-04T04:38:13;101381.69;;;5.38;96.17
61786;BME280;47692;53.714;11.372;2024-02-04T04:40:38;101378.19;;;5.32;96.11
61786;BME280;47692;53.714;11.372;2024-02-04T04:43:06;101370.41;;;5.31;96.11
61786;BME280;47692;53.714;11.372;2024-02-04T04:45:31;101379.88;;;5.29;96.21
61786;BME280;47692;53.714;11.372;2024-02-04T04:47:56;101374.69;;;5.27;96.71
61786;BME280;47692;53.714;11.372;2024-02-04T04:50:22;101365.19;;;5.25;96.45
61786;BME280;47692;53.714;11.372;2024-02-04T04:52:47;101359.94;;;5.22;96.88
61786;BME280;47692;53.714;11.372;2024-02-04T04:55:12;101363.44;;;5.24;96.82
61786;BME280;47692;53.714;11.372;2024-02-04T04:57:38;101347.84;;;5.21;96.73
61786;BME280;47692;53.714;11.372;2024-02-04T05:00:04;101354.78;;;5.22;96.71
61786;BME280;47692;53.714;11.372;2024-02-04T05:02:32;101343.56;;;5.21;96.76
61786;BME280;47692;53.714;11.372;2024-02-04T05:04:57;101347.84;;;5.21;96.65
61786;BME280;47692;53.714;11.372;2024-02-04T05:07:23;101346.16;;;5.23;96.38
61786;BME280;47692;53.714;11.372;2024-02-04T05:09:48;101339.25;;;5.23;96.62
61786;BME280;47692;53.714;11.372;2024-02-04T05:12:13;101357.38;;;5.22;96.41
61786;BME280;47692;53.714;11.372;2024-02-04T05:14:38;101348.75;;;5.23;96.44
61786;BME280;47692;53.714;11.372;2024-02-04T05:17:04;101357.41;;;5.25;96.63
61786;BME280;47692;53.714;11.372;2024-02-04T05:19:30;101351.41;;;5.29;96.41
61786;BME280;47692;53.714;11.372;2024-02-04T05:21:56;101372.97;;;5.29;96.33
61786;BME280;47692;53.714;11.372;2024-02-04T05:24:21;101366.09;;;5.31;96.49
61786;BME280;47692;53.714;11.372;2024-02-04T05:26:46;101354.84;;;5.29;96.28
61786;BME280;47692;53.714;11.372;2024-02-04T05:29:12;101358.31;;;5.33;96.05
61786;BME280;47692;53.714;11.372;2024-02-04T05:31:43;101334.97;;;5.27;96.15
61786;BME280;47692;53.714;11.372;2024-02-04T05:34:09;101338.41;;;5.24;96.27
61786;BME280;47692;53.714;11.372;2024-02-04T05:36:35;101339.28;;;5.26;96.44
61786;BME280;47692;53.714;11.372;2024-02-04T05:39:14;101327.19;;;5.27;96.53
61786;BME280;47692;53.714;11.372;2024-02-04T05:41:40;101324.59;;;5.25;96.60
61786;BME280;47692;53.714;11.372;2024-02-04T05:44:06;101322.84;;;5.23;96.69
61786;BME280;47692;53.714;11.372;2024-02-04T05:46:36;101318.53;;;5.22;97.11
61786;BME280;47692;53.714;11.372;2024-02-04T05:49:02;101315.94;;;5.20;97.17
61786;BME280;47692;53.714;11.372;2024-02-04T05:51:28;101317.63;;;5.18;97.51
61786;BME280;47692;53.714;11.372;2024-02-04T05:53:54;101307.31;;;5.21;97.54
61786;BME280;47692;53.714;11.372;2024-02-04T05:56:19;101312.44;;;5.16;97.75
61786;BME280;47692;53.714;11.372;2024-02-04T05:58:45;101324.53;;;5.19;97.64
61786;BME280;47692;53.714;11.372;2024-02-04T06:01:11;101334.91;;;5.21;97.91
61786;BME280;47692;53.714;11.372;2024-02-04T06:03:36;101324.59;;;5.24;98.06
61786;BME280;47692;53.714;11.372;2024-02-04T06:06:01;101323.75;;;5.25;98.03
61786;BME280;47692;53.714;11.372;2024-02-04T06:08:27;101324.53;;;5.19;97.83
61786;BME280;47692;53.714;11.372;2024-02-04T06:10:52;101319.38;;;5.17;98.04
61786;BME280;47692;53.714;11.372;2024-02-04T06:13:18;101332.38;;;5.24;98.38
61786;BME280;47692;53.714;11.372;2024-02-04T06:15:43;101319.41;;;5.24;98.31
61786;BME280;47692;53.714;11.372;2024-02-04T06:18:08;101315.06;;;5.20;98.24
61786;BME280;47692;53.714;11.372;2024-02-04T06:20:34;101310.75;;;5.23;98.87
61786;BME280;47692;53.714;11.372;2024-02-04T06:22:59;101302.09;;;5.20;98.87
61786;BME280;47692;53.714;11.372;2024-02-04T06:25:26;101313.28;;;5.15;98.85
61786;BME280;47692;53.714;11.372;2024-02-04T06:27:51;101301.19;;;5.14;99.23
61786;BME280;47692;53.714;11.372;2024-02-04T06:30:17;101310.72;;;5.15;99.15
61786;BME280;47692;53.714;11.372;2024-02-04T06:32:42;101311.56;;;5.14;99.23
61786;BME280;47692;53.714;11.372;2024-02-04T06:35:08;101302.94;;;5.15;98.99
61786;BME280;47692;53.714;11.372;2024-02-04T06:37:33;101301.25;;;5.17;99.00
61786;BME280;47692;53.714;11.372;2024-02-04T06:39:58;101302.97;;;5.18;98.83
61786;BME280;47692;53.714;11.372;2024-02-04T06:42:24;101301.25;;;5.19;99.04
61786;BME280;47692;53.714;11.372;2024-02-04T06:44:49;101297.81;;;5.18;98.82
61786;BME280;47692;53.714;11.372;2024-02-04T06:47:14;101292.59;;;5.17;98.74
61786;BME280;47692;53.714;11.372;2024-02-04T06:49:43;101292.63;;;5.18;98.80
61786;BME280;47692;53.714;11.372;2024-02-04T06:52:08;101297.81;;;5.18;98.52
61786;BME280;47692;53.714;11.372;2024-02-04T06:54:34;101289.19;;;5.23;98.83
61786;BME280;47692;53.714;11.372;2024-02-04T06:56:59;101295.22;;;5.23;98.99
61786;BME280;47692;53.714;11.372;2024-02-04T06:59:24;101283.13;;;5.19;98.80
61786;BME280;47692;53.714;11.372;2024-02-04T07:01:50;101274.50;;;5.18;99.03
61786;BME280;47692;53.714;11.372;2024-02-04T07:04:15;101278.84;;;5.23;99.19
61786;BME280;47692;53.714;11.372;2024-02-04T07:06:40;101249.44;;;5.14;99.15
61786;BME280;47692;53.714;11.372;2024-02-04T07:09:06;101263.25;;;5.16;98.95
61786;BME280;47692;53.714;11.372;2024-02-04T07:11:32;101266.75;;;5.18;98.95
61786;BME280;47692;53.714;11.372;2024-02-04T07:13:58;101254.66;;;5.17;98.59
61786;BME280;47692;53.714;11.372;2024-02-04T07:16:25;101255.50;;;5.16;98.96
61786;BME280;47692;53.714;11.372;2024-02-04T07:18:50;101258.94;;;5.17;98.90
61786;BME280;47692;53.714;11.372;2024-02-04T07:21:16;101261.56;;;5.18;98.75
61786;BME280;47692;53.714;11.372;2024-02-04T07:23:41;101274.47;;;5.17;99.04
61786;BME280;47692;53.714;11.372;2024-02-04T07:26:07;101271.88;;;5.15;98.77
61786;BME280;47692;53.714;11.372;2024-02-04T07:28:32;101257.22;;;5.16;98.98
61786;BME280;47692;53.714;11.372;2024-02-04T07:30:57;101258.09;;;5.16;99.19
61786;BME280;47692;53.714;11.372;2024-02-04T07:33:23;101257.25;;;5.17;99.10
61786;BME280;47692;53.714;11.372;2024-02-04T07:35:48;101240.81;;;5.15;99.20
61786;BME280;47692;53.714;11.372;2024-02-04T07:38:13;101242.56;;;5.18;98.93
61786;BME280;47692;53.714;11.372;2024-02-04T07:40:39;101246.03;;;5.18;99.14
61786;BME280;47692;53.714;11.372;2024-02-04T07:43:04;101242.56;;;5.20;98.91
61786;BME280;47692;53.714;11.372;2024-02-04T07:45:29;101236.53;;;5.16;98.99
61786;BME280;47692;53.714;11.372;2024-02-04T07:47:55;101236.53;;;5.19;99.15
61786;BME280;47692;53.714;11.372;2024-02-04T07:50:20;101244.31;;;5.21;99.29
61786;BME280;47692;53.714;11.372;2024-02-04T07:52:45;101242.56;;;5.18;99.34
61786;BME280;47692;53.714;11.372;2024-02-04T07:55:11;101240.81;;;5.15;99.34
61786;BME280;47692;53.714;11.372;2024-02-04T07:57:36;101251.16;;;5.17;99.18
61786;BME280;47692;53.714;11.372;2024-02-04T08:00:01;101249.44;;;5.14;99.25
61786;BME280;47692;53.714;11.372;2024-02-04T08:02:30;101237.34;;;5.13;99.20
61786;BME280;47692;53.714;11.372;2024-02-04T08:04:55;101238.28;;;5.20;99.28
61786;BME280;47692;53.714;11.372;2024-02-04T08:07:21;101252.09;;;5.22;99.43
61786;BME280;47692;53.714;11.372;2024-02-04T08:09:46;101247.78;;;5.23;99.20
61786;BME280;47692;53.714;11.372;2024-02-04T08:12:11;101236.53;;;5.17;99.41
61786;BME280;47692;53.714;11.372;2024-02-04T08:14:37;101243.41;;;5.17;99.49
61786;BME280;47692;53.714;11.372;2024-02-04T08:17:02;101238.28;;;5.20;99.34
61786;BME280;47692;53.714;11.372;2024-02-04T08:19:28;101240.84;;;5.18;99.17
61786;BME280;47692;53.714;11.372;2024-02-04T08:21:53;101237.38;;;5.20;99.08
61786;BME280;47692;53.714;11.372;2024-02-04T08:24:18;101224.44;;;5.18;99.37
61786;BME280;47692;53.714;11.372;2024-02-04T08:26:44;101237.44;;;5.26;98.97
61786;BME280;47692;53.714;11.372;2024-02-04T08:29:09;101240.91;;;5.25;99.26
61786;BME280;47692;53.714;11.372;2024-02-04T08:31:36;101219.31;;;5.21;99.13
61786;BME280;47692;53.714;11.372;2024-02-04T08:34:01;101220.19;;;5.25;99.14
61786;BME280;47692;53.714;11.372;2024-02-04T08:36:29;101216.72;;;5.26;99.21
61786;BME280;47692;53.714;11.372;2024-02-04T08:38:55;101216.72;;;5.26;98.87
61786;BME280;47692;53.714;11.372;2024-02-04T08:41:21;101216.72;;;5.26;98.50
61786;BME280;47692;53.714;11.372;2024-02-04T08:43:46;101222.78;;;5.28;98.88
61786;BME280;47692;53.714;11.372;2024-02-04T08:46:11;101215.91;;;5.31;98.62
61786;BME280;47692;53.714;11.372;2024-02-04T08:48:37;101222.78;;;5.28;98.66
61786;BME280;47692;53.714;11.372;2024-02-04T08:51:02;101224.53;;;5.32;98.71
61786;BME280;47692;53.714;11.372;2024-02-04T08:53:27;101231.44;;;5.33;98.61
61786;BME280;47692;53.714;11.372;2024-02-04T08:55:53;101211.63;;;5.35;98.50
61786;BME280;47692;53.714;11.372;2024-02-04T09:10:55;101201.38;;;5.54;96.41
61786;BME280;47692;53.714;11.372;2024-02-04T09:13:20;101194.47;;;5.56;96.27
61786;BME280;47692;53.714;11.372;2024-02-04T09:15:45;101194.50;;;5.59;95.98
61786;BME280;47692;53.714;11.372;2024-02-04T09:18:11;101185.88;;;5.60;95.78
61786;BME280;47692;53.714;11.372;2024-02-04T09:20:36;101184.13;;;5.62;95.40
61786;BME280;47692;53.714;11.372;2024-02-04T09:23:01;101191.06;;;5.60;95.32
61786;BME280;47692;53.714;11.372;2024-02-04T09:25:28;101177.22;;;5.58;95.04
61786;BME280;47692;53.714;11.372;2024-02-04T09:27:54;101173.78;;;5.60;95.33
61786;BME280;47692;53.714;11.372;2024-02-04T09:30:19;101169.44;;;5.56;95.00
61786;BME280;47692;53.714;11.372;2024-02-04T09:32:45;101173.75;;;5.56;95.34
61786;BME280;47692;53.714;11.372;2024-02-04T09:35:10;101170.31;;;5.54;95.42
61786;BME280;47692;53.714;11.372;2024-02-04T09:37:35;101180.66;;;5.54;95.43
61786;BME280;47692;53.714;11.372;2024-02-04T09:40:01;101172.03;;;5.55;95.39
61786;BME280;47692;53.714;11.372;2024-02-04T09:42:26;101174.63;;;5.56;95.36
61786;BME280;47692;53.714;11.372;2024-02-04T09:44:53;101176.34;;;5.56;95.43
61786;BME280;47692;53.714;11.372;2024-02-04T09:47:20;101164.25;;;5.59;94.87
61786;BME280;47692;53.714;11.372;2024-02-04T09:49:46;101185.84;;;5.57;95.12
61786;BME280;47692;53.714;11.372;2024-02-04T09:52:12;101182.44;;;5.61;94.97
61786;BME280;47692;53.714;11.372;2024-02-04T09:54:45;101182.41;;;5.59;95.15
61786;BME280;47692;53.714;11.372;2024-02-04T09:57:13;101171.19;;;5.62;95.20
61786;BME280;47692;53.714;11.372;2024-02-04T09:59:39;101172.91;;;5.60;95.13
61786;BME280;47692;53.714;11.372;2024-02-04T10:02:05;101182.44;;;5.64;94.89
61786;BME280;47692;53.714;11.372;2024-02-04T10:04:32;101180.69;;;5.63;94.97
61786;BME280;47692;53.714;11.372;2024-02-04T10:06:57;101177.25;;;5.64;94.88
61786;BME280;47692;53.714;11.372;2024-02-04T10:09:23;101183.31;;;5.64;94.94
61786;BME280;47692;53.714;11.372;2024-02-04T10:11:48;101178.13;;;5.69;95.04
61786;BME280;47692;53.714;11.372;2024-02-04T10:14:13;101168.63;;;5.65;94.96
61786;BME280;47692;53.714;11.372;2024-02-04T10:16:41;101159.13;;;5.64;94.92
61786;BME280;47692;53.714;11.372;2024-02-04T10:19:06;101160.00;;;5.69;95.08
61786;BME280;47692;53.714;11.372;2024-02-04T10:21:32;101158.25;;;5.68;94.81
61786;BME280;47692;53.714;11.372;2024-02-04T10:23:57;101162.59;;;5.68;94.75
61786;BME280;47692;53.714;11.372;2024-02-04T10:26:28;101160.88;;;5.70;95.17
61786;BME280;47692;53.714;11.372;2024-02-04T10:28:57;101166.06;;;5.70;94.93
61786;BME280;47692;53.714;11.372;2024-02-04T10:31:22;101155.69;;;5.73;94.83
61786;BME280;47692;53.714;11.372;2024-02-04T10:33:49;101149.63;;;5.69;94.77
61786;BME280;47692;53.714;11.372;2024-02-04T10:36:15;101147.91;;;5.65;94.75
61786;BME280;47692;53.714;11.372;2024-02-04T10:38:40;101163.44;;;5.68;94.91
61786;BME280;47692;53.714;11.372;2024-02-04T10:41:06;101149.63;;;5.66;95.04
61786;BME280;47692;53.714;11.372;2024-02-04T10:43:34;101154.81;;;5.66;95.04
61786;BME280;47692;53.714;11.372;2024-02-04T10:46:09;101162.63;;;5.71;95.36
61786;BME280;47692;53.714;11.372;2024-02-04T10:48:37;101137.56;;;5.70;95.02
61786;BME280;47692;53.714;11.372;2024-02-04T10:51:14;101136.72;;;5.71;94.70
61786;BME280;47692;53.714;11.372;2024-02-04T10:53:44;101121.16;;;5.72;95.16
61786;BME280;47692;53.714;11.372;2024-02-04T10:56:26;101131.56;;;5.77;95.06
61786;BME280;47692;53.714;11.372;2024-02-04T10:58:55;101122.91;;;5.76;94.78
61786;BME280;47692;53.714;11.372;2024-02-04T11:01:22;101126.38;;;5.78;94.70
61786;BME280;47692;53.714;11.372;2024-02-04T11:03:48;101123.75;;;5.75;94.78
61786;BME280;47692;53.714;11.372;2024-02-04T11:06:13;101109.94;;;5.73;95.06
61786;BME280;47692;53.714;11.372;2024-02-04T11:08:39;101116.88;;;5.76;94.94
61786;BME280;47692;53.714;11.372;2024-02-04T11:11:04;101112.53;;;5.76;94.94
61786;BME280;47692;53.714;11.372;2024-02-04T11:13:30;101106.47;;;5.74;95.08
61786;BME280;47692;53.714;11.372;2024-02-04T11:15:58;101100.44;;;5.75;95.59
61786;BME280;47692;53.714;11.372;2024-02-04T11:21:33;101094.41;;;5.81;95.05
61786;BME280;47692;53.714;11.372;2024-02-04T11:26:41;101090.94;;;5.80;95.11
61786;BME280;47692;53.714;11.372;2024-02-04T11:29:09;101091.81;;;5.78;95.33
61786;BME280;47692;53.714;11.372;2024-02-04T11:31:38;101098.72;;;5.80;95.62
61786;BME280;47692;53.714;11.372;2024-02-04T11:34:04;101084.91;;;5.81;95.67
61786;BME280;47692;53.714;11.372;2024-02-04T11:36:30;101083.16;;;5.80;95.46
61786;BME280;47692;53.714;11.372;2024-02-04T11:39:11;101092.69;;;5.81;95.46
61786;BME280;47692;53.714;11.372;2024-02-04T11:41:44;101088.38;;;5.83;95.32
61786;BME280;47692;53.714;11.372;2024-02-04T11:44:10;101094.44;;;5.89;95.67
61786;BME280;47692;53.714;11.372;2024-02-04T11:46:35;101088.41;;;5.88;95.20
61786;BME280;47692;53.714;11.372;2024-02-04T11:49:00;101091.84;;;5.90;94.82
61786;BME280;47692;53.714;11.372;2024-02-04T11:51:25;101096.19;;;5.94;94.73
61786;BME280;47692;53.714;11.372;2024-02-04T11:53:51;101096.16;;;5.91;94.58
61786;BME280;47692;53.714;11.372;2024-02-04T11:56:19;101103.97;;;5.94;94.27
61786;BME280;47692;53.714;11.372;2024-02-04T11:58:46;101089.25;;;5.95;94.58
61786;BME280;47692;53.714;11.372;2024-02-04T12:01:11;101103.06;;;5.94;94.43
61786;BME280;47692;53.714;11.372;2024-02-04T12:03:37;101096.19;;;5.96;94.42
61786;BME280;47692;53.714;11.372;2024-02-04T12:06:03;101092.75;;;6.00;94.47
61786;BME280;47692;53.714;11.372;2024-02-04T12:08:30;101091.91;;;6.01;94.39
61786;BME280;47692;53.714;11.372;2024-02-04T12:10:57;101096.22;;;5.99;94.55
61786;BME280;47692;53.714;11.372;2024-02-04T12:13:23;101104.88;;;6.04;94.73
61786;BME280;47692;53.714;11.372;2024-02-04T12:15:49;101105.72;;;6.00;94.36
61786;BME280;47692;53.714;11.372;2024-02-04T12:18:15;101097.09;;;6.03;94.49
61786;BME280;47692;53.714;11.372;2024-02-04T12:20:42;101104.88;;;6.07;94.56
61786;BME280;47692;53.714;11.372;2024-02-04T12:23:07;101091.06;;;6.07;94.36
61786;BME280;47692;53.714;11.372;2024-02-04T12:25:34;101090.19;;;6.11;94.26
61786;BME280;47692;53.714;11.372;2024-02-04T12:28:01;101091.06;;;6.14;93.76
61786;BME280;47692;53.714;11.372;2024-02-04T12:30:29;101094.53;;;6.20;93.54
61786;BME280;47692;53.714;11.372;2024-02-04T12:33:05;101091.06;;;6.21;93.42
61786;BME280;47692;53.714;11.372;2024-02-04T12:35:31;101105.78;;;6.23;93.09
61786;BME280;47692;53.714;11.372;2024-02-04T12:37:58;101086.75;;;6.21;93.31
61786;BME280;47692;53.714;11.372;2024-02-04T12:40:31;101080.72;;;6.19;93.68
61786;BME280;47692;53.714;11.372;2024-02-04T12:43:00;101082.44;;;6.25;93.66
61786;BME280;47692;53.714;11.372;2024-02-04T12:45:27;101080.72;;;6.21;93.53
61786;BME280;47692;53.714;11.372;2024-02-04T12:47:54;101079.00;;;6.24;93.45
61786;BME280;47692;53.714;11.372;2024-02-04T12:50:20;101070.34;;;6.25;93.76
61786;BME280;47692;53.714;11.372;2024-02-04T12:52:47;101078.09;;;6.24;93.73
61786;BME280;47692;53.714;11.372;2024-02-04T12:55:28;101068.59;;;6.26;93.39
61786;BME280;47692;53.714;11.372;2024-02-04T12:58:04;101066.88;;;6.26;93.27
61786;BME280;47692;53.714;11.372;2024-02-04T13:00:31;101063.44;;;6.30;93.13
61786;BME280;47692;53.714;11.372;2024-02-04T13:02:57;101066.00;;;6.34;93.10
61786;BME280;47692;53.714;11.372;2024-02-04T13:05:26;101057.38;;;6.33;92.84
61786;BME280;47692;53.714;11.372;2024-02-04T13:07:55;101053.91;;;6.37;92.70
61786;BME280;47692;53.714;11.372;2024-02-04T13:10:25;101061.69;;;6.43;92.34
61786;BME280;47692;53.714;11.372;2024-02-04T13:13:01;101059.13;;;6.40;92.15